Time Latitude Longitude Accuracy (66% radius in meters) Altitude (meters) Speed (km/hour) Bearing (degrees) Battery (%) GPS flag
05:28:58 57.150583 39.348838 7 93.099998474121 0 0 21 1 delete
05:28:37 57.150552 39.348804 8.5 97.199996948242 0.26999998092651 37.765502929688 21 1 delete
05:18:26 57.150680 39.348478 1.5 111.30000305176 0 0 21 1 delete
05:18:11 57.150619 39.348332 2 109.5 0.63999998569489 69.89501953125 21 1 delete
05:17:56 57.150577 39.348233 2.5 109.40000152588 0 0 21 1 delete
05:17:28 57.150577 39.348233 2.5 109.40000152588 0 0 21 1 delete
05:16:57 57.150577 39.348233 3 109.40000152588 0 0 24 1 delete
05:16:27 57.150577 39.348233 2.5 109.40000152588 0 0 24 1 delete
05:15:55 57.150559 39.348211 2.5 107.30000305176 0 0 24 1 delete
05:15:25 57.150562 39.348225 3 104.09999847412 0 0 24 1 delete
05:14:55 57.150557 39.348217 2 104.09999847412 0.35999998450279 327.24426269531 24 1 delete
05:14:25 57.150555 39.348199 2.5 105.30000305176 0 0 24 1 delete
05:13:50 57.150555 39.348199 2 105.30000305176 0 0 24 1 delete
05:13:20 57.150555 39.348199 2.5 105.30000305176 0 0 24 1 delete
05:12:50 57.150553 39.348206 3 106.40000152588 0.26999998092651 122.783203125 24 1 delete
05:12:20 57.150521 39.348213 2.5 108.40000152588 0 0 24 1 delete
05:11:50 57.150521 39.348213 2.5 108.40000152588 0 0 24 1 delete
05:11:20 57.150521 39.348213 3 108.40000152588 0 0 24 1 delete
05:10:50 57.150535 39.348215 3 107.09999847412 0 0 24 1 delete
05:10:20 57.150536 39.348222 2 109.19999694824 0.40999999642372 136.318359375 24 1 delete
05:09:50 57.150548 39.348221 2.5 107.90000152588 0 0 24 1 delete
05:09:15 57.150548 39.348221 3 107.90000152588 0 0 24 1 delete
05:08:45 57.150554 39.348257 2.5 105.80000305176 0 0 24 1 delete
05:08:15 57.150555 39.348237 3 106.80000305176 0.070000000298023 216.77124023438 24 1 delete
05:07:45 57.150540 39.348223 2 106 0 0 24 1 delete
05:07:15 57.150540 39.348223 2 106 0 0 24 1 delete
05:06:45 57.150543 39.348224 2.5 106.90000152588 0 0 24 1 delete
05:06:15 57.150517 39.348230 4 103.80000305176 0.41999998688698 309.96826171875 24 1 delete
05:05:40 57.150480 39.348180 3 102.80000305176 0 0 24 1 delete
05:05:10 57.150486 39.348202 3.5 100.90000152588 0.39999997615814 14.826049804688 24 1 delete
05:04:40 57.150463 39.348201 3.5 103.19999694824 0 0 24 1 delete
05:04:10 57.150463 39.348201 3.5 103.19999694824 0 0 24 1 delete
05:03:40 57.150463 39.348201 4 103.19999694824 0 0 24 1 delete
05:03:10 57.150463 39.348201 5.5 103.19999694824 0 0 24 1 delete
05:02:35 57.150459 39.348217 6.5 103.09999847412 0 0 24 1 delete
04:52:09 57.150531 39.348209 4 103.09999847412 0 0 25 1 delete
04:51:54 57.150542 39.348222 5 102.90000152588 0.43999999761581 199.48974609375 25 1 delete
04:51:34 57.150590 39.348263 8.5 105.80000305176 0 0 25 1 delete
04:51:04 57.150623 39.348274 7.5 106 0 0 25 1 delete
04:40:34 57.150613 39.348149 8 102.90000152588 0.070000000298023 325.82153320312 25 1 delete
04:40:13 57.150648 39.348219 9.5 84 0.28000000119209 38.073120117188 25 1 delete
04:30:01 57.150527 39.348206 3 107.09999847412 0 0 26 1 delete
04:29:56 57.150531 39.348210 3 106 0.35999998450279 207.46032714844 26 1 delete
04:29:31 57.150522 39.348203 3.5 103.30000305176 0 0 26 1 delete
04:29:01 57.150527 39.348242 4 95 0 0 26 1 delete
04:28:31 57.150527 39.348242 4 95 0 0 26 1 delete
04:28:01 57.150527 39.348242 2.5 95 0 0 26 1 delete
04:27:31 57.150527 39.348242 3 95 0 0 26 1 delete
04:26:56 57.150527 39.348242 4.5 95 0 0 26 1 delete
04:26:26 57.150508 39.348219 3 92.099998474121 0 0 26 1 delete